Change the Weather History Date:

Monday, October 14, 2013

  Actual Average Record
Temperature  
Mean Temperature 56 °F -  
Max Temperature 67 °F 61 °F 78 °F (2008)
Min Temperature 44 °F 44 °F 36 °F (2007)
Degree Days  
Heating Degree Days 9    
Growing Degree Days 6 (Base 50)    
Moisture  
Dew Point 50 °F    
Average Humidity 80    
Maximum Humidity 100    
Minimum Humidity 52    
Precipitation  
Precipitation 0.00 in - - ()
Sea Level Pressure  
Sea Level Pressure 30.30 in    
Wind  
Wind Speed 2 mph (NE)    
Max Wind Speed 6 mph    
Max Gust Speed -    
Visibility 4 miles    
Events      
Averages and records for this station are not official NWS values.
T = Trace of Precipitation, MM = Missing Value Source: NWS Daily Summary

Daily Weather History Graph

Daily Weather History Graph

Search for Another Location

Airport or City:

Trip Planner

Search our weather history database for the weather conditions in past years. The results will help you decide how hot, cold, wet, or windy it might be!

Date:

Astronomy

Oct. 14, 2013 Rise Set
Actual Time 7:16 AM EDT 6:27 PM EDT
Civil Twilight 6:48 AM EDT 6:54 PM EDT
Nautical Twilight 6:17 AM EDT 7:26 PM EDT
Astronomical Twilight 5:45 AM EDT 7:57 PM EDT
Moon 3:56 PM EDT (10/14) 2:29 AM EDT (10/14)
Length of Visible Light 12h 05m
Length of Day
11h 11m
Waxing Gibbous, 79% of the Moon is Illuminated
Oct 14
Waxing Gibbous
Oct 18
Full
Oct 26
Last Quarter
Nov 3
New
Nov 10
First Quarter

Hourly Weather History & Observations

Time (EDT) Temp. Dew Point Humidity Pressure Visibility Wind Dir Wind Speed Gust Speed Precip Events Conditions
12:02 AM 51.8 °F 48.2 °F 88% 30.37 in 10.0 mi NE 3.5 mph - N/A   Mostly Cloudy
12:48 AM 51.8 °F 48.2 °F 88% 30.37 in 10.0 mi NE 2.3 mph - N/A   Overcast
12:58 AM 52.7 °F 49.5 °F 89% 30.38 in 10.0 mi NE 2.3 mph - N/A   Overcast
1:14 AM 51.8 °F 50.0 °F 94% 30.36 in 10.0 mi NNE 3.5 mph - N/A   Mostly Cloudy
1:16 AM 51.8 °F 50.0 °F 94% 30.36 in 10.0 mi NE 2.3 mph - N/A   Scattered Clouds
1:24 AM 51.8 °F 50.0 °F 94% 30.36 in 10.0 mi NNE 2.3 mph - N/A   Mostly Cloudy
1:30 AM 51.8 °F 50.0 °F 94% 30.36 in 10.0 mi North 2.3 mph - N/A   Scattered Clouds
1:58 AM 51.4 °F 49.3 °F 92% 30.37 in 10.0 mi North 2.3 mph - N/A   Clear
2:58 AM 49.8 °F 48.9 °F 97% 30.36 in 10.0 mi North 2.3 mph - N/A   Clear
3:58 AM 47.8 °F 47.5 °F 99% 30.36 in 9.0 mi NE 1.2 mph - N/A   Clear
4:58 AM 46.8 °F 46.4 °F 99% 30.36 in 7.0 mi NE 1.2 mph - N/A   Clear
5:44 AM 46.4 °F 46.4 °F 100% 30.35 in 2.5 mi Calm Calm - N/A   Clear
5:48 AM 46.4 °F 46.4 °F 100% 30.35 in 3.0 mi Calm Calm - N/A   Clear
5:58 AM 46.0 °F 45.9 °F 99% 30.36 in 10.0 mi Calm Calm - N/A   Clear
6:20 AM 46.4 °F 44.6 °F 93% 30.35 in 2.0 mi Calm Calm - N/A   Clear
6:22 AM 46.4 °F 44.6 °F 93% 30.35 in 1.8 mi Calm Calm - N/A   Clear
6:24 AM 46.4 °F 44.6 °F 93% 30.35 in 1.5 mi Calm Calm - N/A   Clear
6:26 AM 46.4 °F 44.6 °F 93% 30.35 in 1.2 mi Calm Calm - N/A   Clear
6:30 AM 46.4 °F 44.6 °F 93% 30.35 in 1.8 mi NE 1.2 mph - N/A   Clear
6:32 AM 46.4 °F 44.6 °F 93% 30.35 in 2.0 mi NE 1.2 mph - N/A   Clear
6:36 AM 44.6 °F 44.6 °F 100% 30.35 in 3.0 mi NE 1.2 mph - N/A   Clear
6:58 AM 46.0 °F 45.7 °F 99% 30.36 in 8.0 mi Calm Calm - N/A   Clear
7:18 AM 44.6 °F 44.6 °F 100% 30.35 in 2.5 mi Calm Calm - N/A   Clear
7:24 AM 44.6 °F 44.6 °F 100% 30.35 in 1.8 mi Calm Calm - N/A   Clear
7:28 AM 44.6 °F 44.6 °F 100% 30.35 in 2.5 mi Calm Calm - N/A   Clear
7:32 AM 44.6 °F 44.6 °F 100% 30.35 in 3.0 mi Calm Calm - N/A   Clear
7:58 AM 46.6 °F 46.4 °F 99% 30.37 in 10.0 mi Calm Calm - N/A   Clear
8:58 AM 52.5 °F 52.3 °F 99% 30.38 in 10.0 mi ENE 1.2 mph - N/A   Clear
9:16 AM 55.4 °F 51.8 °F 88% 30.37 in 10.0 mi East 5.8 mph - N/A   Partly Cloudy
9:58 AM 56.8 °F 51.4 °F 82% 30.38 in 10.0 mi Variable 3.5 mph - N/A   Scattered Clouds
10:14 AM 57.2 °F 50.0 °F 77% 30.37 in 10.0 mi Variable 2.3 mph - N/A   Mostly Cloudy
10:18 AM 57.2 °F 50.0 °F 77% 30.37 in 10.0 mi ENE 2.3 mph - N/A   Mostly Cloudy
10:20 AM 57.2 °F 50.0 °F 77% 30.37 in 10.0 mi East 3.5 mph - N/A   Mostly Cloudy
10:22 AM 57.2 °F 50.0 °F 77% 30.37 in 10.0 mi Variable 2.3 mph - N/A   Mostly Cloudy
10:28 AM 57.2 °F 50.0 °F 77% 30.37 in 10.0 mi NE 1.2 mph - N/A   Mostly Cloudy
10:58 AM 57.7 °F 49.6 °F 74% 30.37 in 10.0 mi Calm Calm - N/A   Overcast
11:50 AM 59.0 °F 50.0 °F 72% 30.34 in 10.0 mi West 4.6 mph - N/A   Overcast
11:58 AM 58.1 °F 49.5 °F 73% 30.35 in 10.0 mi Variable 2.3 mph - N/A   Mostly Cloudy
12:04 PM 59.0 °F 50.0 °F 72% 30.34 in 10.0 mi Variable 3.5 mph - N/A   Scattered Clouds
12:58 PM 62.2 °F 49.5 °F 63% 30.32 in 10.0 mi Variable 3.5 mph - N/A   Clear
1:58 PM 64.4 °F 49.3 °F 58% 30.29 in 6.0 mi SE 4.6 mph - N/A   Haze
2:52 PM 66.2 °F 50.0 °F 56% 30.26 in 2.5 mi Variable 4.6 mph - N/A   Haze
2:58 PM 66.2 °F 50.0 °F 56% 30.27 in 3.0 mi ESE 4.6 mph - N/A   Haze
3:50 PM 66.2 °F 50.0 °F 56% 30.24 in 2.5 mi Variable 3.5 mph - N/A   Haze
3:54 PM 66.2 °F 50.0 °F 56% 30.25 in 1.8 mi Variable 2.3 mph - N/A   Haze
3:56 PM 66.2 °F 50.0 °F 56% 30.24 in 1.5 mi Variable 1.2 mph - N/A   Haze
3:58 PM 66.7 °F 50.4 °F 56% 30.26 in 1.5 mi Calm Calm - N/A   Haze
4:02 PM 66.2 °F 50.0 °F 56% 30.25 in 1.2 mi SE 3.5 mph - N/A   Haze
4:04 PM 66.2 °F 50.0 °F 56% 30.25 in 1.5 mi ESE 3.5 mph - N/A   Haze
4:06 PM 66.2 °F 50.0 °F 56% 30.25 in 1.2 mi Variable 3.5 mph - N/A   Haze
4:08 PM 66.2 °F 50.0 °F 56% 30.24 in 1.5 mi SSE 3.5 mph - N/A   Haze
4:14 PM 66.2 °F 50.0 °F 56% 30.24 in 1.2 mi Variable 1.2 mph - N/A   Haze
4:42 PM 68.0 °F 50.0 °F 52% 30.24 in 1.0 mi Variable 3.5 mph - N/A   Haze
4:48 PM 68.0 °F 50.0 °F 52% 30.24 in 1.2 mi SE 4.6 mph - N/A   Haze
4:50 PM 66.2 °F 50.0 °F 56% 30.24 in 1.2 mi SE 2.3 mph - N/A   Haze
4:52 PM 66.2 °F 50.0 °F 56% 30.24 in 1.5 mi SE 2.3 mph - N/A   Haze
4:58 PM 66.7 °F 50.2 °F 55% 30.26 in 1.5 mi South 3.5 mph - N/A   Haze
5:00 PM 66.2 °F 50.0 °F 56% 30.24 in 1.2 mi SSW 4.6 mph - N/A   Haze
5:04 PM 66.2 °F 50.0 °F 56% 30.24 in 1.0 mi Variable 2.3 mph - N/A   Haze
5:08 PM 66.2 °F 50.0 °F 56% 30.25 in 0.8 mi Calm Calm - N/A   Haze
5:10 PM 66.2 °F 50.0 °F 56% 30.25 in 1.0 mi Variable 1.2 mph - N/A   Haze
5:18 PM 66.2 °F 50.0 °F 56% 30.25 in 1.2 mi South 4.6 mph - N/A   Haze
5:20 PM 66.2 °F 50.0 °F 56% 30.25 in 1.2 mi South 3.5 mph - N/A   Haze
5:30 PM 66.2 °F 50.0 °F 56% 30.25 in 1.0 mi SSW 3.5 mph - N/A   Haze
5:58 PM 65.7 °F 50.5 °F 58% 30.26 in 1.0 mi SSW 2.3 mph - N/A   Haze
6:16 PM 64.4 °F 53.6 °F 68% 30.26 in 1.2 mi Calm Calm - N/A   Haze
6:18 PM 62.6 °F 53.6 °F 72% 30.26 in 1.2 mi Calm Calm - N/A   Haze
6:20 PM 62.6 °F 53.6 °F 72% 30.26 in 1.5 mi NW 2.3 mph - N/A   Haze
6:24 PM 62.6 °F 53.6 °F 72% 30.26 in 1.8 mi NNW 2.3 mph - N/A   Haze
6:32 PM 60.8 °F 53.6 °F 77% 30.26 in 1.5 mi NNW 1.2 mph - N/A   Haze
6:46 PM 59.0 °F 53.6 °F 82% 30.26 in 1.8 mi NNW 1.2 mph - N/A   Haze
6:48 PM 59.0 °F 53.6 °F 82% 30.26 in 2.0 mi NNW 1.2 mph - N/A   Haze
6:58 PM 59.4 °F 52.3 °F 78% 30.28 in 2.5 mi NNW 1.2 mph - N/A   Haze
7:04 PM 59.0 °F 53.6 °F 82% 30.27 in 3.0 mi Calm Calm - N/A   Haze
7:12 PM 59.0 °F 53.6 °F 82% 30.27 in 2.5 mi NNW 1.2 mph - N/A   Haze
7:18 PM 59.0 °F 51.8 °F 77% 30.27 in 3.0 mi NNW 1.2 mph - N/A   Haze
7:28 PM 57.2 °F 51.8 °F 82% 30.27 in 2.5 mi NNW 1.2 mph - N/A   Haze
7:44 PM 57.2 °F 51.8 °F 82% 30.27 in 3.0 mi Calm Calm - N/A   Haze
7:58 PM 56.5 °F 52.9 °F 88% 30.29 in 3.0 mi Calm Calm - N/A   Haze
8:04 PM 57.2 °F 51.8 °F 82% 30.27 in 2.5 mi Calm Calm - N/A   Clear
8:58 PM 55.2 °F 52.9 °F 92% 30.28 in 2.5 mi Calm Calm - N/A   Overcast
9:16 PM 55.4 °F 53.6 °F 94% 30.27 in 3.0 mi Calm Calm - N/A   Overcast
9:38 PM 55.4 °F 53.6 °F 94% 30.27 in 2.5 mi Calm Calm - N/A   Overcast
9:54 PM 55.4 °F 53.6 °F 94% 30.28 in 3.0 mi Calm Calm - N/A   Overcast
9:58 PM 55.6 °F 53.4 °F 92% 30.28 in 3.0 mi Calm Calm - N/A   Overcast
10:10 PM 55.4 °F 53.6 °F 94% 30.28 in 2.5 mi Calm Calm - N/A   Overcast
10:22 PM 55.4 °F 53.6 °F 94% 30.27 in 3.0 mi Calm Calm - N/A   Overcast
10:26 PM 55.4 °F 53.6 °F 94% 30.27 in 2.5 mi Calm Calm - N/A   Overcast
10:52 PM 55.4 °F 53.6 °F 94% 30.27 in 3.0 mi Calm Calm - N/A   Scattered Clouds
10:58 PM 55.2 °F 53.4 °F 94% 30.28 in 3.0 mi Calm Calm - N/A   Scattered Clouds
11:16 PM 55.4 °F 53.6 °F 94% 30.26 in 2.5 mi Calm Calm - N/A   Mostly Cloudy
11:28 PM 53.6 °F 53.6 °F 100% 30.26 in 3.0 mi Calm Calm - N/A   Mostly Cloudy
11:52 PM 53.6 °F 51.8 °F 94% 30.25 in 2.5 mi Calm Calm - N/A   Clear
11:58 PM 52.5 °F 52.3 °F 99% 30.27 in 2.5 mi Calm Calm - N/A   Clear